Pelagos — SZSW — position and weather

sailwx.info

Track history (hours):
 
Tides and Currents Weather Stations Pressure Air Temp Water Temp Dewpoint Dewpoint Depression Visibility Wind Speed Wind Dir Waves Ship Positions

Pelagos

Last reported at 2014-Aug-30 01:25 UTC. Time now 2014-Sep-01 07:45 UTC.
Position N 59°58' E 027°00'.

Length 249 m; draft 8 m.

Type: Ship. MMSI: 240335000.

Date/timePositionNaut miles runAvg speedWind from/ knotsBaromVisibWave heightAir tempDewpointWater temp
2014-Aug-30 01:25N 59°58' E 027°00'8 9.8
2014-Aug-30 00:33N 59°59' E 026°44'12 9.7
2014-Aug-29 23:20N 59°57' E 026°20'50 9.8
2014-Aug-29 18:11N 59°46' E 024°43'6 9.7
2014-Aug-29 17:33N 59°45' E 024°31'10 9.8
2014-Aug-29 16:33N 59°42' E 024°12'10 9.8
2014-Aug-29 15:33N 59°39' E 023°54'10 9.8
2014-Aug-29 14:33N 59°35' E 023°35'10 9.9
2014-Aug-29 13:33N 59°32' E 023°17'259 9.6
2014-Aug-28 10:33N 56°08' E 018°17'13 9.8
2014-Aug-28 09:16N 56°01' E 017°59'7 9.8
2014-Aug-28 08:33N 55°58' E 017°48'10 9.8
2014-Aug-28 07:33N 55°54' E 017°32'40 9.8
2014-Aug-28 03:29N 55°44' E 016°23'21 9.9
2014-Aug-28 01:25N 55°39' E 015°47'9 9.9
2014-Aug-28 00:29N 55°37' E 015°31'9 9.8
2014-Aug-27 23:33N 55°34' E 015°16'10 9.8
2014-Aug-27 22:31N 55°29' E 015°00'1010.0
2014-Aug-27 21:33N 55°25' E 014°45'10 9.7
2014-Aug-27 20:33N 55°19' E 014°32'1010.0
2014-Aug-27 19:33N 55°11' E 014°21'1010.5
2014-Aug-27 18:33N 55°10' E 014°03'10 9.8
2014-Aug-27 17:33N 55°11' E 013°46'10 9.8
2014-Aug-27 16:33N 55°12' E 013°29'10 9.8
2014-Aug-27 15:33N 55°13' E 013°12'10 9.9
2014-Aug-27 14:33N 55°14' E 012°54'10 9.8
2014-Aug-27 13:33N 55°18' E 012°39'10 9.5
2014-Aug-27 12:33N 55°27' E 012°41'9 9.4
2014-Aug-27 11:33N 55°35' E 012°50'9 8.7
2014-Aug-27 10:33N 55°44' E 012°52'1312.8
2014-Aug-27 09:33N 55°56' E 012°43'1212.4
2014-Aug-27 08:33N 56°06' E 012°32'9 9.3
2014-Aug-27 07:33N 56°12' E 012°19'1010.3
2014-Aug-27 06:33N 56°18' E 012°04'1010.0
2014-Aug-27 05:30N 56°28' E 011°59'1010.3
2014-Aug-27 04:33N 56°37' E 011°55'10 9.8
2014-Aug-27 03:31N 56°47' E 011°51'1010.2
2014-Aug-27 02:32N 56°56' E 011°44'1010.0
2014-Aug-27 01:33N 57°06' E 011°38'1010.0
2014-Aug-27 00:33N 57°15' E 011°32'1010.1
2014-Aug-26 23:33N 57°25' E 011°25'10 9.9
2014-Aug-26 22:33N 57°33' E 011°14'10 9.9
2014-Aug-26 21:33N 57°39' E 011°00'1010.2
2014-Aug-26 20:32N 57°46' E 010°46'10 9.9
2014-Aug-26 19:33N 57°47' E 010°28'1010.2
2014-Aug-26 18:33N 57°47' E 010°09'1110.0
2014-Aug-26 17:29N 57°45' E 009°49'1010.1
2014-Aug-26 16:28N 57°42' E 009°30'910.2
2014-Aug-26 15:33N 57°40' E 009°13'1010.1
2014-Aug-26 14:33N 57°36' E 008°56'373 9.6
2014-Aug-24 23:33N 52°20' E 003°10'10 9.9
2014-Aug-24 22:33N 52°10' E 003°08'41 9.1
2014-Aug-24 18:05N 51°39' E 002°26'5 9.1
2014-Aug-24 17:32N 51°35' E 002°21'9 9.5
2014-Aug-24 16:33N 51°27' E 002°13'10 9.8
2014-Aug-24 15:33N 51°18' E 002°07'10 9.7
2014-Aug-24 14:33N 51°11' E 001°56'1010.3
2014-Aug-24 13:33N 51°05' E 001°44'1211.3
2014-Aug-24 12:32N 50°57' E 001°30'42 9.8
2014-Aug-24 08:18N 50°27' E 000°44'7 9.9
2014-Aug-24 07:33N 50°25' E 000°33'10 9.8
2014-Aug-24 06:33N 50°23' E 000°18'  
2014-Aug-20 19:06N 39°23' W 009°50'6310.9
2014-Aug-20 13:16N 38°20' W 009°44'5110.9
2014-Aug-20 08:31N 37°29' W 009°30'1110.9
2014-Aug-20 07:33N 37°19' W 009°27'  
Track history (hours):
 
Tides and Currents Weather Stations Pressure Air Temp Water Temp Dewpoint Dewpoint Depression Visibility Wind Speed Wind Dir Waves Ship Positions

Pelagos

Last reported at 2014-Aug-30 01:25 UTC. Time now 2014-Sep-01 07:45 UTC.
Position N 59°58' E 027°00'.

Length 249 m; draft 8 m.

Type: Ship. MMSI: 240335000.

Date/timePositionNaut miles runAvg speedWind from/ knotsBaromVisibWave heightAir tempDewpointWater temp
2014-Aug-30 01:25N 59°58' E 027°00'8 9.8
2014-Aug-30 00:33N 59°59' E 026°44'12 9.7
2014-Aug-29 23:20N 59°57' E 026°20'50 9.8
2014-Aug-29 18:11N 59°46' E 024°43'6 9.7
2014-Aug-29 17:33N 59°45' E 024°31'10 9.8
2014-Aug-29 16:33N 59°42' E 024°12'10 9.8
2014-Aug-29 15:33N 59°39' E 023°54'10 9.8
2014-Aug-29 14:33N 59°35' E 023°35'10 9.9
2014-Aug-29 13:33N 59°32' E 023°17'259 9.6
2014-Aug-28 10:33N 56°08' E 018°17'13 9.8
2014-Aug-28 09:16N 56°01' E 017°59'7 9.8
2014-Aug-28 08:33N 55°58' E 017°48'10 9.8
2014-Aug-28 07:33N 55°54' E 017°32'40 9.8
2014-Aug-28 03:29N 55°44' E 016°23'21 9.9
2014-Aug-28 01:25N 55°39' E 015°47'9 9.9
2014-Aug-28 00:29N 55°37' E 015°31'9 9.8
2014-Aug-27 23:33N 55°34' E 015°16'10 9.8
2014-Aug-27 22:31N 55°29' E 015°00'1010.0
2014-Aug-27 21:33N 55°25' E 014°45'10 9.7
2014-Aug-27 20:33N 55°19' E 014°32'1010.0
2014-Aug-27 19:33N 55°11' E 014°21'1010.5
2014-Aug-27 18:33N 55°10' E 014°03'10 9.8
2014-Aug-27 17:33N 55°11' E 013°46'10 9.8
2014-Aug-27 16:33N 55°12' E 013°29'10 9.8
2014-Aug-27 15:33N 55°13' E 013°12'10 9.9
2014-Aug-27 14:33N 55°14' E 012°54'10 9.8
2014-Aug-27 13:33N 55°18' E 012°39'10 9.5
2014-Aug-27 12:33N 55°27' E 012°41'9 9.4
2014-Aug-27 11:33N 55°35' E 012°50'9 8.7
2014-Aug-27 10:33N 55°44' E 012°52'1312.8
2014-Aug-27 09:33N 55°56' E 012°43'1212.4
2014-Aug-27 08:33N 56°06' E 012°32'9 9.3
2014-Aug-27 07:33N 56°12' E 012°19'1010.3
2014-Aug-27 06:33N 56°18' E 012°04'1010.0
2014-Aug-27 05:30N 56°28' E 011°59'1010.3
2014-Aug-27 04:33N 56°37' E 011°55'10 9.8
2014-Aug-27 03:31N 56°47' E 011°51'1010.2
2014-Aug-27 02:32N 56°56' E 011°44'1010.0
2014-Aug-27 01:33N 57°06' E 011°38'1010.0
2014-Aug-27 00:33N 57°15' E 011°32'1010.1
2014-Aug-26 23:33N 57°25' E 011°25'10 9.9
2014-Aug-26 22:33N 57°33' E 011°14'10 9.9
2014-Aug-26 21:33N 57°39' E 011°00'1010.2
2014-Aug-26 20:32N 57°46' E 010°46'10 9.9
2014-Aug-26 19:33N 57°47' E 010°28'1010.2
2014-Aug-26 18:33N 57°47' E 010°09'1110.0
2014-Aug-26 17:29N 57°45' E 009°49'1010.1
2014-Aug-26 16:28N 57°42' E 009°30'910.2
2014-Aug-26 15:33N 57°40' E 009°13'1010.1
2014-Aug-26 14:33N 57°36' E 008°56'373 9.6
2014-Aug-24 23:33N 52°20' E 003°10'10 9.9
2014-Aug-24 22:33N 52°10' E 003°08'41 9.1
2014-Aug-24 18:05N 51°39' E 002°26'5 9.1
2014-Aug-24 17:32N 51°35' E 002°21'9 9.5
2014-Aug-24 16:33N 51°27' E 002°13'10 9.8
2014-Aug-24 15:33N 51°18' E 002°07'10 9.7
2014-Aug-24 14:33N 51°11' E 001°56'1010.3
2014-Aug-24 13:33N 51°05' E 001°44'1211.3
2014-Aug-24 12:32N 50°57' E 001°30'42 9.8
2014-Aug-24 08:18N 50°27' E 000°44'7 9.9
2014-Aug-24 07:33N 50°25' E 000°33'10 9.8
2014-Aug-24 06:33N 50°23' E 000°18'  
2014-Aug-20 19:06N 39°23' W 009°50'6310.9
2014-Aug-20 13:16N 38°20' W 009°44'5110.9
2014-Aug-20 08:31N 37°29' W 009°30'1110.9
2014-Aug-20 07:33N 37°19' W 009°27'  

Dump ship's entire track history